createdAt,value
2023-02-14T00:00:31.996Z,95118.41
2023-02-14T00:05:35.187Z,95125.94
2023-02-14T00:10:38.647Z,95111.97
2023-02-14T00:15:41.771Z,95117.38
2023-02-14T00:20:45.162Z,95112.81
2023-02-14T00:25:48.316Z,95115.25
2023-02-14T00:30:51.347Z,95118.78
2023-02-14T00:35:54.774Z,95096.22
2023-02-14T00:40:58.636Z,95104.03
2023-02-14T00:46:02.714Z,95100.69
2023-02-14T00:51:07.036Z,95098.41
2023-02-14T00:56:10.255Z,95101.13
2023-02-14T01:01:15.059Z,95102.53
2023-02-14T01:06:19.323Z,95097.75
2023-02-14T01:11:24.269Z,95097.78
2023-02-14T01:16:30.338Z,95093.75
2023-02-14T01:21:34.321Z,95081.88
2023-02-14T01:26:37.911Z,95068.59
2023-02-14T01:31:41.155Z,95078.41
2023-02-14T01:36:44.253Z,95080.19
2023-02-14T01:41:49.085Z,95064.94
2023-02-14T01:46:52.690Z,95047.41
2023-02-14T01:52:06.388Z,95054.84
2023-02-14T01:57:13.999Z,95046.75
2023-02-14T02:02:24.122Z,95043.06
2023-02-14T02:07:28.241Z,95042.69
2023-02-14T02:12:36.010Z,95025.38
2023-02-14T02:17:42.474Z,95030.50
2023-02-14T02:23:13.451Z,95028.78
2023-02-14T02:29:14.301Z,95023.81
2023-02-14T02:34:32.210Z,95024.56
2023-02-14T02:40:00.309Z,95019.56
2023-02-14T02:45:19.625Z,95008.63
2023-02-14T02:51:05.190Z,95011.31
2023-02-14T02:56:33.448Z,95011.94
2023-02-14T03:01:41.686Z,95015.97
2023-02-14T03:06:46.433Z,95016.16
2023-02-14T03:12:07.808Z,95016.69
2023-02-14T03:17:31.676Z,95000.94
2023-02-14T03:22:44.796Z,95017.63
2023-02-14T03:27:59.143Z,94996.94
2023-02-14T03:33:10.140Z,94996.56
2023-02-14T03:38:36.958Z,94988.22
2023-02-14T03:43:47.333Z,94993.41
2023-02-14T03:48:53.468Z,94983.09
2023-02-14T03:53:59.459Z,94990.66
2023-02-14T03:59:11.996Z,94996.81
2023-02-14T04:04:18.384Z,94983.13
2023-02-14T04:09:21.857Z,94967.13
2023-02-14T04:14:27.058Z,94984.50
2023-02-14T04:19:30.003Z,94982.91
2023-02-14T04:24:33.660Z,94976.44
2023-02-14T04:29:48.799Z,94975.97
2023-02-14T04:34:52.771Z,94953.22
2023-02-14T04:39:56.341Z,94978.94
2023-02-14T04:44:59.825Z,94988.63
2023-02-14T04:50:03.643Z,94979.75
2023-02-14T04:55:07.712Z,94994.22
2023-02-14T05:00:12.525Z,94986.72
2023-02-14T05:05:15.720Z,94975.75
2023-02-14T05:10:19.220Z,94992.91
2023-02-14T05:15:22.877Z,94992.16
2023-02-14T05:20:26.349Z,94960.56
2023-02-14T05:25:32.948Z,94985.16
2023-02-14T05:30:37.226Z,94942.34
2023-02-14T05:35:40.301Z,94964.56
2023-02-14T05:40:46.316Z,94993.22
2023-02-14T05:45:50.448Z,94978.72
2023-02-14T05:50:53.939Z,94988.09
2023-02-14T05:55:57.977Z,94985.97
2023-02-14T06:01:02.130Z,95012.22
2023-02-14T06:06:06.818Z,95007.88
2023-02-14T06:11:10.159Z,94996.88
2023-02-14T06:16:13.375Z,94996.25
2023-02-14T06:21:16.865Z,95028.88
2023-02-14T06:26:20.410Z,95019.53
2023-02-14T06:31:25.516Z,95011.69
2023-02-14T06:38:28.037Z,95005.28
2023-02-14T06:43:31.931Z,95016.13
2023-02-14T06:48:35.346Z,95004.97
2023-02-14T06:53:38.943Z,94992.59
2023-02-14T06:58:41.994Z,94984.06
2023-02-14T07:03:45.976Z,94986.19
2023-02-14T07:08:50.648Z,94977.94
2023-02-14T07:13:56.041Z,94987.28
2023-02-14T07:18:59.253Z,94969.41
2023-02-14T07:24:02.728Z,94963.34
2023-02-14T07:29:05.918Z,94958.19
2023-02-14T07:34:09.862Z,94948.06
2023-02-14T07:39:13.098Z,94953.25
2023-02-14T07:44:16.294Z,94957.44
2023-02-14T07:49:19.825Z,94960.44
2023-02-14T07:54:23.143Z,94971.75
2023-02-14T07:59:26.918Z,94952.34
2023-02-14T08:04:32.955Z,94966.19
2023-02-14T08:09:37.174Z,94960.59
2023-02-14T08:14:40.513Z,94962.44
2023-02-14T08:19:44.234Z,94961.69
2023-02-14T08:24:47.575Z,94970.47
2023-02-14T08:29:51.164Z,94964.19
2023-02-14T08:34:54.316Z,94968.94
2023-02-14T08:39:57.362Z,94972.41
2023-02-14T08:45:01.164Z,94968.50
2023-02-14T08:50:09.980Z,94972.72
2023-02-14T08:55:14.633Z,94981.81
2023-02-14T09:00:18.066Z,94968.84
2023-02-14T09:05:23.688Z,94965.50
2023-02-14T09:10:28.642Z,94959.28
2023-02-14T09:15:31.966Z,94954.28
2023-02-14T09:20:35.437Z,94952.31
2023-02-14T09:25:38.678Z,94949.91
2023-02-14T09:30:42.209Z,94947.22
2023-02-14T09:35:45.764Z,94940.88
2023-02-14T09:40:50.672Z,94945.38
2023-02-14T09:45:57.495Z,94944.69
2023-02-14T09:51:05.680Z,94925.44
2023-02-14T09:56:27.303Z,94946.69
2023-02-14T10:01:41.783Z,94939.69
2023-02-14T10:07:09.879Z,94944.41
2023-02-14T10:12:47.952Z,94939.31
2023-02-14T10:17:54.558Z,94938.81
2023-02-14T10:23:04.949Z,94924.66
2023-02-14T10:28:14.649Z,94921.53
2023-02-14T10:33:33.702Z,94911.25
2023-02-14T10:38:46.715Z,94905.69
2023-02-14T10:44:26.358Z,94889.50
2023-02-14T10:50:09.592Z,94898.09
2023-02-14T10:55:32.096Z,94888.66
2023-02-14T11:00:40.168Z,94870.09
2023-02-14T11:05:47.819Z,94877.44
2023-02-14T11:10:51.248Z,94849.56
2023-02-14T11:15:58.797Z,94852.13
2023-02-14T11:21:03.509Z,94864.47
2023-02-14T11:26:22.823Z,94843.59
2023-02-14T11:31:38.662Z,94839.38
2023-02-14T11:36:43.280Z,94839.59
2023-02-14T11:41:53.020Z,94830.13
2023-02-14T11:46:58.337Z,94822.22
2023-02-14T11:52:14.142Z,94824.03
2023-02-14T11:57:45.413Z,94819.41
2023-02-14T12:02:51.424Z,94817.44
2023-02-14T12:07:59.321Z,94804.16
2023-02-14T12:13:09.998Z,94796.47
2023-02-14T12:18:37.903Z,94796.53
2023-02-14T12:24:11.988Z,94787.25
2023-02-14T12:29:43.811Z,94771.44
2023-02-14T12:34:48.736Z,94765.56
2023-02-14T12:39:54.818Z,94769.13
2023-02-14T12:45:10.308Z,94767.00
2023-02-14T12:50:34.699Z,94764.25
2023-02-14T12:56:04.598Z,94765.16
2023-02-14T13:01:42.008Z,94764.34
2023-02-14T13:06:52.166Z,94741.41
2023-02-14T13:12:15.073Z,94755.13
2023-02-14T13:17:27.835Z,94743.41
2023-02-14T13:22:34.225Z,94739.69
2023-02-14T13:27:40.327Z,94726.47
2023-02-14T13:32:47.859Z,94728.84
2023-02-14T13:37:59.231Z,94711.50
2023-02-14T13:43:02.909Z,94707.19
2023-02-14T13:48:12.338Z,94716.75
2023-02-14T13:53:44.219Z,94715.50
2023-02-14T13:58:56.303Z,94707.22
2023-02-14T14:04:03.230Z,94702.78
2023-02-14T14:09:11.632Z,94697.25
2023-02-14T14:14:30.618Z,94696.50
2023-02-14T14:19:39.337Z,94697.28
2023-02-14T14:24:56.740Z,94699.63
2023-02-14T14:30:03.374Z,94674.78
2023-02-14T14:35:26.757Z,94695.28
2023-02-14T14:40:33.094Z,94690.97
2023-02-14T14:45:37.065Z,94698.06
2023-02-14T14:50:46.373Z,94676.38
2023-02-14T14:55:52.410Z,94683.09
2023-02-14T15:00:55.704Z,94673.19
2023-02-14T15:06:19.303Z,94683.66
2023-02-14T15:11:47.713Z,94678.13
2023-02-14T15:16:55.031Z,94668.03
2023-02-14T15:21:58.609Z,94662.88
2023-02-14T15:27:03.960Z,94685.84
2023-02-14T15:32:11.331Z,94685.91
2023-02-14T15:37:15.440Z,94697.81
2023-02-14T15:42:27.970Z,94698.50
2023-02-14T15:47:33.767Z,94679.38
2023-02-14T15:52:41.069Z,94702.00
2023-02-14T15:57:48.775Z,94693.81
2023-02-14T16:03:06.645Z,94709.56
2023-02-14T16:08:34.374Z,94709.22
2023-02-14T16:13:38.834Z,94711.88
2023-02-14T16:18:50.912Z,94712.78
2023-02-14T16:24:12.055Z,94674.63
2023-02-14T16:29:17.113Z,94712.38
2023-02-14T16:34:20.895Z,94719.03
2023-02-14T16:39:25.340Z,94718.22
2023-02-14T16:44:29.133Z,94717.88
2023-02-14T16:49:32.480Z,94716.59
2023-02-14T16:54:36.014Z,94713.78
2023-02-14T16:59:40.025Z,94737.34
2023-02-14T17:04:43.208Z,94730.13
2023-02-14T17:09:52.120Z,94728.31
2023-02-14T17:15:01.041Z,94683.47
2023-02-14T17:20:08.739Z,94734.03
2023-02-14T17:25:12.549Z,94741.72
2023-02-14T17:30:16.337Z,94737.59
2023-02-14T17:35:20.440Z,94744.16
2023-02-14T17:40:25.724Z,94750.97
2023-02-14T17:45:31.971Z,94764.81
2023-02-14T17:50:37.975Z,94753.16
2023-02-14T17:55:41.102Z,94745.31
2023-02-14T18:00:44.730Z,94753.09
2023-02-14T18:05:48.018Z,94751.66
2023-02-14T18:10:51.544Z,94749.50
2023-02-14T18:15:54.699Z,94757.31
2023-02-14T18:21:03.059Z,94761.94
2023-02-14T18:26:10.309Z,94759.94
2023-02-14T18:31:17.224Z,94751.41
2023-02-14T18:36:24.580Z,94741.56
2023-02-14T18:41:28.103Z,94748.53
2023-02-14T18:46:35.462Z,94772.75
2023-02-14T18:51:41.757Z,94771.56
2023-02-14T18:56:46.208Z,94763.28
2023-02-14T19:01:49.250Z,94774.38
2023-02-14T19:06:52.995Z,94774.16
2023-02-14T19:12:00.435Z,94779.63
2023-02-14T19:17:03.923Z,94779.59
2023-02-14T19:22:06.891Z,94748.03
2023-02-14T19:27:10.132Z,94784.31
2023-02-14T19:32:13.281Z,94778.16
2023-02-14T19:37:16.401Z,94765.16
2023-02-14T19:42:20.735Z,94772.03
2023-02-14T19:47:36.521Z,94783.66
2023-02-14T19:52:49.021Z,94785.69
2023-02-14T19:57:52.475Z,94771.44
2023-02-14T20:02:56.030Z,94784.44
2023-02-14T20:07:59.332Z,94787.06
2023-02-14T20:13:02.920Z,94780.16
2023-02-14T20:18:06.032Z,94775.75
2023-02-14T20:23:09.272Z,94778.34
2023-02-14T20:28:12.835Z,94766.97
2023-02-14T20:33:16.373Z,94776.53
2023-02-14T20:38:20.095Z,94783.13
2023-02-14T20:43:25.945Z,94767.25
2023-02-14T20:48:30.381Z,94759.81
2023-02-14T20:53:33.427Z,94708.25
2023-02-14T20:58:37.513Z,94769.00
2023-02-14T21:03:51.198Z,94762.16
2023-02-14T21:08:54.870Z,94757.88
2023-02-14T21:13:59.990Z,94761.84
2023-02-14T21:19:04.501Z,94756.28
2023-02-14T21:24:14.852Z,94737.19
2023-02-14T21:29:18.295Z,94741.78
2023-02-14T21:34:21.526Z,94742.00
2023-02-14T21:39:27.732Z,94730.41
2023-02-14T21:44:50.146Z,94739.19
2023-02-14T21:50:11.539Z,94723.00
2023-02-14T21:55:17.762Z,94731.50
2023-02-14T22:00:22.830Z,94736.16
2023-02-14T22:05:26.668Z,94735.97
2023-02-14T22:10:30.335Z,94735.34
2023-02-14T22:15:33.384Z,94739.53
2023-02-14T22:20:37.123Z,94692.16
2023-02-14T22:25:40.170Z,94733.53
2023-02-14T22:30:43.393Z,94724.72
2023-02-14T22:35:47.402Z,94734.53
2023-02-14T22:40:50.535Z,94730.44
2023-02-14T22:45:53.576Z,94721.53
2023-02-14T22:50:56.743Z,94723.31
2023-02-14T22:56:12.611Z,94729.81
2023-02-14T23:01:24.151Z,94733.72
2023-02-14T23:06:29.553Z,94734.69
2023-02-14T23:11:34.479Z,94720.88
2023-02-14T23:17:13.141Z,94724.25
2023-02-14T23:22:24.422Z,94721.84
2023-02-14T23:27:35.468Z,94712.63
2023-02-14T23:32:38.686Z,94714.16
2023-02-14T23:37:42.100Z,94714.38
2023-02-14T23:42:45.646Z,94688.97
2023-02-14T23:47:48.715Z,94710.75
2023-02-14T23:52:52.141Z,94693.38
2023-02-14T23:57:55.424Z,94701.00
